createdAt,value
2022-12-25T00:01:12.700Z,42.88
2022-12-25T00:03:39.898Z,41.67
2022-12-25T00:06:07.320Z,36.67
2022-12-25T00:08:34.863Z,39.63
2022-12-25T00:11:04.452Z,35.55
2022-12-25T00:13:31.555Z,44.78
2022-12-25T00:15:58.874Z,36.63
2022-12-25T00:18:26.001Z,37.75
2022-12-25T00:21:00.841Z,34.83
2022-12-25T00:23:28.244Z,32.58
2022-12-25T00:25:55.217Z,31.73
2022-12-25T00:28:23.456Z,34.45
2022-12-25T00:30:51.258Z,29.80
2022-12-25T00:33:18.880Z,31.83
2022-12-25T00:35:57.488Z,33.08
2022-12-25T00:38:24.673Z,28.83
2022-12-25T00:40:52.314Z,28.00
2022-12-25T00:43:19.523Z,25.13
2022-12-25T00:45:55.615Z,25.75
2022-12-25T00:48:22.616Z,26.98
2022-12-25T00:50:52.898Z,29.58
2022-12-25T00:53:24.319Z,34.08
2022-12-25T00:55:56.809Z,31.42
2022-12-25T00:58:25.212Z,29.05
2022-12-25T01:00:52.499Z,31.92
2022-12-25T01:03:19.603Z,26.27
2022-12-25T01:05:59.505Z,21.33
2022-12-25T01:08:29.062Z,26.67
2022-12-25T01:10:58.067Z,26.42
2022-12-25T01:13:25.664Z,26.55
2022-12-25T01:15:52.828Z,28.90
2022-12-25T01:18:23.580Z,22.25
2022-12-25T01:20:50.920Z,24.23
2022-12-25T01:23:17.754Z,24.70
2022-12-25T01:25:44.588Z,25.42
2022-12-25T01:28:11.430Z,26.48
2022-12-25T01:30:38.321Z,23.23
2022-12-25T01:33:05.224Z,25.67
2022-12-25T01:35:32.215Z,19.75
2022-12-25T01:38:02.084Z,24.00
2022-12-25T01:40:28.920Z,20.85
2022-12-25T01:42:55.978Z,23.98
2022-12-25T01:45:43.906Z,21.80
2022-12-25T01:48:18.159Z,20.80
2022-12-25T01:50:49.781Z,22.20
2022-12-25T01:55:44.967Z,24.92
2022-12-25T01:58:12.057Z,23.08
2022-12-25T02:00:38.965Z,22.00
2022-12-25T02:03:06.237Z,21.58
2022-12-25T02:05:34.976Z,22.73
2022-12-25T02:08:07.939Z,25.45
2022-12-25T02:10:35.130Z,24.80
2022-12-25T02:13:02.929Z,19.65
2022-12-25T02:15:47.479Z,24.17
2022-12-25T02:18:39.024Z,21.05
2022-12-25T02:21:30.443Z,19.92
2022-12-25T02:24:16.671Z,21.85
2022-12-25T02:27:02.951Z,29.92
2022-12-25T02:29:42.421Z,23.20
2022-12-25T02:32:27.819Z,21.85
2022-12-25T02:35:07.197Z,20.33
2022-12-25T02:37:40.145Z,20.50
2022-12-25T02:40:15.808Z,21.45
2022-12-25T02:43:10.197Z,19.65
2022-12-25T02:46:05.115Z,19.27
2022-12-25T02:48:54.396Z,19.15
2022-12-25T02:51:42.178Z,21.48
2022-12-25T02:54:32.057Z,20.63
2022-12-25T02:57:20.937Z,21.02
2022-12-25T03:00:08.972Z,23.38
2022-12-25T03:02:55.642Z,18.83
2022-12-25T03:05:45.246Z,20.45
2022-12-25T03:08:16.776Z,22.15
2022-12-25T03:11:07.182Z,22.05
2022-12-25T03:13:38.985Z,19.00
2022-12-25T03:16:24.952Z,18.08
2022-12-25T03:18:53.731Z,19.10
2022-12-25T03:21:39.069Z,19.45
2022-12-25T03:24:24.917Z,18.02
2022-12-25T03:26:57.962Z,17.40
2022-12-25T03:29:51.988Z,21.58
2022-12-25T03:32:58.724Z,24.75
2022-12-25T03:35:49.604Z,26.30
2022-12-25T03:38:49.894Z,20.88
2022-12-25T03:41:42.042Z,19.63
2022-12-25T03:44:38.916Z,19.20
2022-12-25T03:47:37.074Z,19.90
2022-12-25T03:50:28.388Z,18.27
2022-12-25T03:53:17.249Z,17.27
2022-12-25T03:56:03.079Z,18.88
2022-12-25T03:58:48.467Z,45.78
2022-12-25T04:01:33.800Z,40.03
2022-12-25T04:04:19.262Z,30.55
2022-12-25T04:07:04.805Z,24.67
2022-12-25T04:09:50.340Z,23.27
2022-12-25T04:12:35.990Z,24.67
2022-12-25T04:15:21.507Z,24.55
2022-12-25T04:18:11.519Z,21.83
2022-12-25T04:20:57.145Z,21.98
2022-12-25T04:23:42.640Z,15.63
2022-12-25T04:26:28.246Z,19.23
2022-12-25T04:29:13.959Z,16.38
2022-12-25T04:31:59.448Z,18.98
2022-12-25T04:34:45.060Z,20.17
2022-12-25T04:37:12.054Z,15.70
2022-12-25T04:39:38.956Z,17.00
2022-12-25T04:42:06.357Z,18.35
2022-12-25T04:44:33.178Z,20.85
2022-12-25T04:47:01.108Z,20.23
2022-12-25T04:49:29.455Z,17.38
2022-12-25T04:51:56.422Z,17.77
2022-12-25T04:54:23.557Z,19.13
2022-12-25T04:56:50.422Z,20.50
2022-12-25T04:59:17.329Z,19.50
2022-12-25T05:01:44.339Z,20.98
2022-12-25T05:04:11.402Z,19.17
2022-12-25T05:06:39.067Z,23.67
2022-12-25T05:09:06.268Z,22.90
2022-12-25T05:11:33.157Z,21.95
2022-12-25T05:14:00.064Z,18.73
2022-12-25T05:16:27.263Z,19.15
2022-12-25T05:18:54.226Z,20.83
2022-12-25T05:21:21.205Z,22.50
2022-12-25T05:23:52.112Z,18.13
2022-12-25T05:26:22.887Z,15.38
2022-12-25T05:28:50.590Z,31.20
2022-12-25T05:31:17.789Z,34.25
2022-12-25T05:33:44.783Z,34.35
2022-12-25T05:36:12.589Z,20.25
2022-12-25T05:38:39.559Z,22.10
2022-12-25T05:41:06.997Z,21.50
2022-12-25T05:43:34.110Z,21.42
2022-12-25T05:46:06.499Z,15.75
2022-12-25T05:48:36.068Z,16.67
2022-12-25T05:51:07.780Z,16.90
2022-12-25T05:53:35.449Z,15.80
2022-12-25T05:56:04.364Z,16.80
2022-12-25T05:58:33.172Z,16.98
2022-12-25T06:01:00.501Z,15.13
2022-12-25T06:03:27.813Z,20.60
2022-12-25T06:05:55.444Z,17.17
2022-12-25T06:08:22.312Z,15.82
2022-12-25T06:10:49.637Z,17.63
2022-12-25T06:13:16.495Z,17.98
2022-12-25T06:15:43.524Z,17.33
2022-12-25T06:18:10.488Z,17.70
2022-12-25T06:20:41.056Z,15.75
2022-12-25T06:23:07.964Z,16.05
2022-12-25T06:25:34.981Z,18.45
2022-12-25T06:28:01.823Z,19.15
2022-12-25T06:30:28.758Z,16.67
2022-12-25T06:32:55.674Z,17.88
2022-12-25T06:35:22.566Z,17.98
2022-12-25T06:37:49.455Z,18.10
2022-12-25T06:40:16.537Z,16.30
2022-12-25T06:42:43.425Z,15.10
2022-12-25T06:45:11.392Z,16.08
2022-12-25T06:47:38.499Z,15.55
2022-12-25T06:50:06.569Z,17.90
2022-12-25T06:52:33.828Z,20.42
2022-12-25T06:55:00.739Z,28.50
2022-12-25T06:57:27.610Z,26.02
2022-12-25T06:59:55.459Z,23.23
2022-12-25T07:02:24.558Z,21.85
2022-12-25T07:04:52.509Z,21.95
2022-12-25T07:07:20.798Z,17.58
2022-12-25T07:09:47.669Z,17.65
2022-12-25T07:12:17.341Z,16.30
2022-12-25T07:14:45.733Z,18.27
2022-12-25T07:17:12.655Z,20.80
2022-12-25T07:19:44.701Z,16.75
2022-12-25T07:22:12.381Z,18.52
2022-12-25T07:24:39.482Z,18.15
2022-12-25T07:27:06.464Z,16.30
2022-12-25T07:29:33.352Z,17.88
2022-12-25T07:32:00.289Z,16.15
2022-12-25T07:34:27.154Z,20.10
2022-12-25T07:36:55.272Z,18.25
2022-12-25T07:39:23.791Z,17.75
2022-12-25T07:41:51.377Z,19.85
2022-12-25T07:44:18.677Z,19.90
2022-12-25T07:46:45.544Z,18.20
2022-12-25T07:49:12.782Z,20.15
2022-12-25T07:51:40.099Z,18.88
2022-12-25T07:54:07.390Z,16.88
2022-12-25T07:56:34.313Z,18.17
2022-12-25T07:59:01.276Z,22.40
2022-12-25T08:01:28.724Z,19.38
2022-12-25T08:04:01.111Z,19.85
2022-12-25T08:06:31.703Z,17.50
2022-12-25T08:09:06.758Z,18.70
2022-12-25T08:11:33.665Z,20.83
2022-12-25T08:14:00.967Z,36.78
2022-12-25T08:16:27.995Z,29.13
2022-12-25T08:18:54.939Z,30.20
2022-12-25T08:21:21.963Z,27.70
2022-12-25T08:23:48.818Z,24.85
2022-12-25T08:26:22.806Z,24.63
2022-12-25T08:28:50.424Z,24.88
2022-12-25T08:31:29.419Z,22.38
2022-12-25T08:33:58.141Z,29.27
2022-12-25T08:36:25.511Z,21.55
2022-12-25T08:38:56.960Z,23.13
2022-12-25T08:41:27.689Z,25.27
2022-12-25T08:43:54.751Z,23.17
2022-12-25T08:46:21.704Z,25.00
2022-12-25T08:48:49.870Z,25.27
2022-12-25T08:51:19.638Z,24.08
2022-12-25T08:53:48.823Z,26.27
2022-12-25T08:56:16.884Z,24.92
2022-12-25T08:58:43.844Z,25.80
2022-12-25T09:01:11.674Z,27.58
2022-12-25T09:03:38.743Z,27.23
2022-12-25T09:06:11.109Z,32.25
2022-12-25T09:08:44.035Z,30.77
2022-12-25T09:11:15.366Z,33.83
2022-12-25T09:13:42.443Z,29.33
2022-12-25T09:16:15.519Z,29.73
2022-12-25T09:18:42.461Z,25.80
2022-12-25T09:21:11.836Z,26.88
2022-12-25T09:23:38.720Z,25.55
2022-12-25T09:26:07.754Z,30.90
2022-12-25T09:28:35.173Z,27.48
2022-12-25T09:31:03.917Z,28.13
2022-12-25T09:33:31.043Z,38.70
2022-12-25T09:36:01.026Z,35.85
2022-12-25T09:38:28.127Z,27.10
2022-12-25T09:41:08.202Z,24.33
2022-12-25T09:43:42.852Z,28.95
2022-12-25T09:46:17.254Z,27.58
2022-12-25T09:48:57.972Z,21.17
2022-12-25T09:51:27.849Z,25.53
2022-12-25T09:54:04.534Z,26.75
2022-12-25T09:56:33.630Z,23.90
2022-12-25T09:59:00.499Z,26.23
2022-12-25T10:01:42.615Z,24.27
2022-12-25T10:04:15.182Z,24.05
2022-12-25T10:06:58.549Z,27.35
2022-12-25T10:09:51.966Z,25.73
2022-12-25T10:12:27.217Z,26.33
2022-12-25T10:15:21.889Z,23.27
2022-12-25T10:17:54.618Z,22.75
2022-12-25T10:20:21.480Z,23.05
2022-12-25T10:22:53.055Z,24.80
2022-12-25T10:28:03.133Z,24.08
2022-12-25T10:30:30.882Z,26.97
2022-12-25T10:32:58.630Z,22.85
2022-12-25T10:35:28.531Z,23.30
2022-12-25T10:38:17.091Z,28.15
2022-12-25T10:41:02.762Z,22.30
2022-12-25T10:43:51.599Z,25.65
2022-12-25T10:46:20.072Z,26.92
2022-12-25T10:48:51.788Z,27.27
2022-12-25T10:51:37.060Z,23.90
2022-12-25T10:54:19.271Z,26.85
2022-12-25T10:57:07.930Z,25.00
2022-12-25T10:59:41.795Z,23.00
2022-12-25T11:02:26.146Z,23.98
2022-12-25T11:05:10.240Z,26.73
2022-12-25T11:07:46.714Z,24.77
2022-12-25T11:10:32.861Z,25.70
2022-12-25T11:13:01.099Z,22.50
2022-12-25T11:15:39.988Z,22.90
2022-12-25T11:18:22.412Z,23.95
2022-12-25T11:20:53.442Z,29.27
2022-12-25T11:23:22.452Z,26.67
2022-12-25T11:26:05.715Z,24.60
2022-12-25T11:28:34.860Z,23.42
2022-12-25T11:31:20.470Z,19.77
2022-12-25T11:33:56.226Z,28.45
2022-12-25T11:36:32.856Z,24.08
2022-12-25T11:39:20.541Z,23.92
2022-12-25T11:41:48.462Z,25.50
2022-12-25T11:44:56.404Z,24.27
2022-12-25T11:47:38.448Z,27.05
2022-12-25T11:50:29.441Z,36.65
2022-12-25T11:52:59.842Z,31.67
2022-12-25T11:55:39.807Z,28.13
2022-12-25T11:58:24.914Z,24.75
2022-12-25T12:00:54.269Z,24.95
2022-12-25T12:03:27.282Z,22.95
2022-12-25T12:06:06.535Z,22.08
2022-12-25T12:08:34.540Z,22.55
2022-12-25T12:11:18.685Z,21.20
2022-12-25T12:14:04.235Z,26.42
2022-12-25T12:16:31.568Z,22.83
2022-12-25T12:18:58.613Z,19.33
2022-12-25T12:21:29.973Z,21.20
2022-12-25T12:24:06.007Z,27.13
2022-12-25T12:26:40.939Z,21.85
2022-12-25T12:29:22.096Z,22.40
2022-12-25T12:31:51.038Z,19.55
2022-12-25T12:34:25.741Z,25.42
2022-12-25T12:36:59.294Z,23.67
2022-12-25T12:39:32.241Z,26.23
2022-12-25T12:41:59.211Z,21.27
2022-12-25T12:44:31.243Z,24.20
2022-12-25T12:46:58.286Z,23.52
2022-12-25T12:49:28.030Z,26.58
2022-12-25T12:52:20.377Z,25.15
2022-12-25T12:54:56.972Z,25.88
2022-12-25T12:57:27.451Z,25.63
2022-12-25T12:59:54.277Z,24.40
2022-12-25T13:03:01.103Z,24.45
2022-12-25T13:05:48.108Z,28.77
2022-12-25T13:08:33.630Z,26.05
2022-12-25T13:11:32.640Z,28.50
2022-12-25T13:14:03.001Z,29.02
2022-12-25T13:16:31.091Z,27.17
2022-12-25T13:19:00.320Z,26.45
2022-12-25T13:21:29.170Z,28.25
2022-12-25T13:23:58.160Z,28.05
2022-12-25T13:26:25.168Z,24.75
2022-12-25T13:28:52.175Z,26.98
2022-12-25T13:31:21.739Z,26.52
2022-12-25T13:34:17.324Z,28.60
2022-12-25T13:36:44.257Z,25.75
2022-12-25T13:39:16.625Z,30.45
2022-12-25T13:42:10.030Z,28.08
2022-12-25T13:44:40.056Z,36.55
2022-12-25T13:47:25.375Z,28.25
2022-12-25T13:49:54.835Z,24.85
2022-12-25T13:52:28.225Z,25.63
2022-12-25T13:55:00.892Z,26.08
2022-12-25T13:57:49.694Z,23.85
2022-12-25T14:00:23.696Z,23.42
2022-12-25T14:02:51.559Z,22.10
2022-12-25T14:05:29.368Z,21.50
2022-12-25T14:08:01.667Z,18.60
2022-12-25T14:10:34.160Z,24.35
2022-12-25T14:13:04.756Z,21.75
2022-12-25T14:15:33.792Z,20.20
2022-12-25T14:18:01.031Z,24.08
2022-12-25T14:20:32.166Z,20.48
2022-12-25T14:23:00.800Z,19.73
2022-12-25T14:25:33.799Z,19.63
2022-12-25T14:28:06.162Z,18.80
2022-12-25T14:30:33.279Z,19.88
2022-12-25T14:33:02.654Z,16.50
2022-12-25T14:35:29.617Z,19.15
2022-12-25T14:38:00.224Z,18.45
2022-12-25T14:40:32.732Z,28.25
2022-12-25T14:43:02.119Z,28.52
2022-12-25T14:45:33.801Z,19.70
2022-12-25T14:50:39.735Z,17.92
2022-12-25T14:53:19.051Z,18.10
2022-12-25T14:55:52.889Z,16.23
2022-12-25T14:58:28.447Z,13.07
2022-12-25T15:01:04.019Z,14.55
2022-12-25T15:03:38.112Z,13.32
2022-12-25T15:06:07.518Z,15.30
2022-12-25T15:08:35.231Z,21.02
2022-12-25T15:11:03.404Z,15.27
2022-12-25T15:13:31.465Z,10.45
2022-12-25T15:16:14.908Z,11.02
2022-12-25T15:18:44.632Z,8.98
2022-12-25T15:21:24.816Z,12.82
2022-12-25T15:23:53.759Z,9.40
2022-12-25T15:26:20.671Z,11.13
2022-12-25T15:28:47.922Z,10.75
2022-12-25T15:31:32.163Z,13.13
2022-12-25T15:34:02.544Z,11.35
2022-12-25T15:36:30.152Z,12.50
2022-12-25T15:38:57.409Z,13.73
2022-12-25T15:42:01.949Z,13.43
2022-12-25T15:44:28.871Z,11.43
2022-12-25T15:46:55.743Z,12.45
2022-12-25T15:49:22.618Z,11.55
2022-12-25T15:51:49.560Z,13.30
2022-12-25T15:54:16.603Z,9.68
2022-12-25T15:56:46.817Z,15.50
2022-12-25T15:59:15.241Z,17.80
2022-12-25T16:01:46.076Z,14.80
2022-12-25T16:04:13.080Z,16.40
2022-12-25T16:06:39.975Z,13.38
2022-12-25T16:09:07.381Z,12.20
2022-12-25T16:11:34.323Z,16.55
2022-12-25T16:14:01.179Z,10.60
2022-12-25T16:16:28.078Z,10.88
2022-12-25T16:18:55.063Z,8.77
2022-12-25T16:21:23.069Z,14.30
2022-12-25T16:23:50.315Z,18.95
2022-12-25T16:26:17.274Z,19.67
2022-12-25T16:28:44.166Z,20.90
2022-12-25T16:31:12.064Z,15.80
2022-12-25T16:33:39.021Z,17.20
2022-12-25T16:36:06.155Z,12.70
2022-12-25T16:38:34.083Z,14.00
2022-12-25T16:41:01.792Z,11.73
2022-12-25T16:43:28.783Z,11.98
2022-12-25T16:45:57.333Z,11.43
2022-12-25T16:48:24.497Z,9.07
2022-12-25T16:50:51.324Z,12.52
2022-12-25T16:53:18.165Z,13.95
2022-12-25T16:55:45.025Z,19.75
2022-12-25T16:58:11.873Z,15.45
2022-12-25T17:00:38.673Z,12.05
2022-12-25T17:03:05.747Z,13.82
2022-12-25T17:05:33.792Z,21.10
2022-12-25T17:08:01.320Z,21.85
2022-12-25T17:10:28.196Z,16.05
2022-12-25T17:12:55.025Z,17.88
2022-12-25T17:15:22.088Z,15.52
2022-12-25T17:17:48.909Z,14.88
2022-12-25T17:20:15.847Z,18.17
2022-12-25T17:22:42.673Z,14.65
2022-12-25T17:25:09.833Z,28.08
2022-12-25T17:27:36.727Z,16.73
2022-12-25T17:30:03.813Z,17.77
2022-12-25T17:32:30.586Z,14.98
2022-12-25T17:34:57.429Z,16.38
2022-12-25T17:37:25.133Z,16.80
2022-12-25T17:39:52.032Z,18.75
2022-12-25T17:42:18.858Z,10.93
2022-12-25T17:44:46.430Z,12.55
2022-12-25T17:47:13.292Z,9.35
2022-12-25T17:49:40.183Z,8.55
2022-12-25T17:52:07.129Z,8.15
2022-12-25T17:54:34.235Z,7.05
2022-12-25T17:57:01.236Z,10.60
2022-12-25T17:59:29.676Z,6.78
2022-12-25T18:01:56.694Z,11.73
2022-12-25T18:04:24.533Z,10.40
2022-12-25T18:06:51.474Z,9.10
2022-12-25T18:09:19.920Z,10.60
2022-12-25T18:11:46.883Z,10.27
2022-12-25T18:14:15.998Z,10.15
2022-12-25T18:16:45.102Z,8.32
2022-12-25T18:19:13.717Z,11.90
2022-12-25T18:21:40.585Z,10.63
2022-12-25T18:24:08.519Z,10.65
2022-12-25T18:26:35.703Z,11.93
2022-12-25T18:29:03.073Z,9.30
2022-12-25T18:31:32.821Z,17.95
2022-12-25T18:34:00.368Z,13.48
2022-12-25T18:36:28.416Z,18.90
2022-12-25T18:38:55.679Z,10.15
2022-12-25T18:41:23.346Z,12.23
2022-12-25T18:43:53.959Z,10.57
2022-12-25T18:46:27.236Z,11.10
2022-12-25T18:48:57.408Z,10.65
2022-12-25T18:51:26.738Z,11.80
2022-12-25T18:53:58.094Z,5.50
2022-12-25T18:56:24.890Z,11.27
2022-12-25T18:58:51.675Z,10.23
2022-12-25T19:01:21.569Z,8.75
2022-12-25T19:03:49.573Z,8.57
2022-12-25T19:06:27.462Z,6.53
2022-12-25T19:08:55.593Z,9.60
2022-12-25T19:11:23.110Z,7.25
2022-12-25T19:13:49.993Z,7.40
2022-12-25T19:16:16.981Z,8.40
2022-12-25T19:18:44.172Z,6.03
2022-12-25T19:21:11.246Z,11.20
2022-12-25T19:23:38.869Z,9.70
2022-12-25T19:26:07.503Z,7.55
2022-12-25T19:28:34.981Z,8.35
2022-12-25T19:31:03.279Z,8.75
2022-12-25T19:33:33.628Z,23.67
2022-12-25T19:36:01.489Z,29.85
2022-12-25T19:38:28.586Z,20.52
2022-12-25T19:41:01.357Z,13.55
2022-12-25T19:43:28.236Z,20.38
2022-12-25T19:45:55.274Z,9.43
2022-12-25T19:48:22.384Z,8.23
2022-12-25T19:50:49.535Z,7.32
2022-12-25T19:53:17.097Z,9.20
2022-12-25T19:55:44.953Z,7.78
2022-12-25T19:58:12.478Z,9.60
2022-12-25T20:00:40.425Z,8.32
2022-12-25T20:03:08.081Z,7.38
2022-12-25T20:05:35.567Z,8.15
2022-12-25T20:08:02.710Z,6.32
2022-12-25T20:10:29.682Z,11.07
2022-12-25T20:12:56.496Z,25.98
2022-12-25T20:15:23.293Z,12.20
2022-12-25T20:17:50.129Z,9.00
2022-12-25T20:20:17.024Z,10.00
2022-12-25T20:22:43.850Z,9.48
2022-12-25T20:25:11.462Z,10.68
2022-12-25T20:27:38.348Z,9.00
2022-12-25T20:30:05.849Z,9.32
2022-12-25T20:32:32.642Z,8.05
2022-12-25T20:34:59.441Z,13.43
2022-12-25T20:37:26.253Z,7.03
2022-12-25T20:39:53.088Z,6.80
2022-12-25T20:42:20.389Z,8.02
2022-12-25T20:44:47.358Z,5.80
2022-12-25T20:47:14.264Z,5.72
2022-12-25T20:49:41.092Z,5.35
2022-12-25T20:52:08.096Z,8.85
2022-12-25T20:54:35.119Z,6.60
2022-12-25T20:57:02.154Z,11.02
2022-12-25T20:59:35.152Z,8.50
2022-12-25T21:02:04.355Z,6.47
2022-12-25T21:04:31.336Z,5.05
2022-12-25T21:06:58.260Z,10.15
2022-12-25T21:09:25.222Z,7.03
2022-12-25T21:11:52.213Z,7.72
2022-12-25T21:14:19.080Z,8.50
2022-12-25T21:16:46.117Z,8.38
2022-12-25T21:19:13.357Z,7.45
2022-12-25T21:21:42.833Z,9.85
2022-12-25T21:24:10.271Z,10.15
2022-12-25T21:26:39.151Z,10.45
2022-12-25T21:29:09.415Z,14.50
2022-12-25T21:31:56.322Z,8.48
2022-12-25T21:34:23.293Z,7.43
2022-12-25T21:36:50.204Z,6.93
2022-12-25T21:39:17.209Z,7.40
2022-12-25T21:41:44.031Z,9.35
2022-12-25T21:44:11.649Z,8.50
2022-12-25T21:46:39.731Z,9.30
2022-12-25T21:49:06.697Z,7.35
2022-12-25T21:51:53.104Z,6.57
2022-12-25T21:54:21.493Z,9.57
2022-12-25T21:56:49.134Z,5.47
2022-12-25T21:59:22.465Z,7.95
2022-12-25T22:01:51.014Z,7.90
2022-12-25T22:04:20.365Z,9.88
2022-12-25T22:07:06.518Z,6.45
2022-12-25T22:09:33.782Z,9.50
2022-12-25T22:12:19.202Z,10.63
2022-12-25T22:14:57.040Z,9.75
2022-12-25T22:18:00.347Z,10.48
2022-12-25T22:20:34.791Z,9.88
2022-12-25T22:23:02.761Z,6.78
2022-12-25T22:25:29.775Z,8.18
2022-12-25T22:27:57.413Z,9.40
2022-12-25T22:30:27.309Z,6.30
2022-12-25T22:32:54.243Z,8.88
2022-12-25T22:35:21.567Z,8.23
2022-12-25T22:37:49.682Z,6.85
2022-12-25T22:40:18.290Z,8.02
2022-12-25T22:42:45.193Z,8.52
2022-12-25T22:45:12.572Z,8.90
2022-12-25T22:47:39.863Z,6.82
2022-12-25T22:50:07.614Z,8.13
2022-12-25T22:52:34.838Z,8.88
2022-12-25T22:55:02.550Z,9.10
2022-12-25T22:57:29.592Z,7.95
2022-12-25T22:59:56.504Z,5.53
2022-12-25T23:02:23.772Z,11.10
2022-12-25T23:04:51.072Z,10.30
2022-12-25T23:07:18.235Z,14.18
2022-12-25T23:09:45.423Z,13.65
2022-12-25T23:12:32.297Z,13.23
2022-12-25T23:14:59.187Z,20.80
2022-12-25T23:17:44.873Z,13.57
2022-12-25T23:20:33.107Z,12.93
2022-12-25T23:23:18.802Z,9.15
2022-12-25T23:26:04.175Z,11.88
2022-12-25T23:28:49.582Z,8.35
2022-12-25T23:31:16.811Z,8.10
2022-12-25T23:33:43.801Z,7.97
2022-12-25T23:36:10.703Z,9.30
2022-12-25T23:38:37.552Z,9.48
2022-12-25T23:41:04.458Z,6.72
2022-12-25T23:43:31.304Z,7.20
2022-12-25T23:45:58.143Z,12.43
2022-12-25T23:48:25.008Z,10.18
2022-12-25T23:50:51.902Z,6.82
2022-12-25T23:53:18.833Z,12.02
2022-12-25T23:55:50.075Z,11.23
2022-12-25T23:58:21.522Z,7.70
